sensor_id;sensor_type;location;lat;lon;timestamp;temperature;humidity
16846;DHT22;8539;53.188;8.696;2024-02-04T00:02:17;7.00;99.90
16846;DHT22;8539;53.188;8.696;2024-02-04T00:04:47;7.00;99.90
16846;DHT22;8539;53.188;8.696;2024-02-04T00:07:15;6.90;99.90
16846;DHT22;8539;53.188;8.696;2024-02-04T00:09:42;6.90;99.90
16846;DHT22;8539;53.188;8.696;2024-02-04T00:12:11;6.90;99.90
16846;DHT22;8539;53.188;8.696;2024-02-04T00:14:38;6.90;99.90
16846;DHT22;8539;53.188;8.696;2024-02-04T00:17:06;6.80;99.90
16846;DHT22;8539;53.188;8.696;2024-02-04T00:19:33;6.80;99.90
16846;DHT22;8539;53.188;8.696;2024-02-04T00:22:00;6.80;99.90
16846;DHT22;8539;53.188;8.696;2024-02-04T00:24:28;6.80;99.90
16846;DHT22;8539;53.188;8.696;2024-02-04T00:26:55;6.80;99.90
16846;DHT22;8539;53.188;8.696;2024-02-04T00:29:22;6.70;99.90
16846;DHT22;8539;53.188;8.696;2024-02-04T00:31:49;6.70;99.90
16846;DHT22;8539;53.188;8.696;2024-02-04T00:34:18;6.70;99.90
16846;DHT22;8539;53.188;8.696;2024-02-04T00:36:45;6.70;99.90
16846;DHT22;8539;53.188;8.696;2024-02-04T00:39:13;6.70;99.90
16846;DHT22;8539;53.188;8.696;2024-02-04T00:41:40;6.60;99.90
16846;DHT22;8539;53.188;8.696;2024-02-04T00:44:07;6.60;99.90
16846;DHT22;8539;53.188;8.696;2024-02-04T00:46:34;6.60;99.90
16846;DHT22;8539;53.188;8.696;2024-02-04T00:49:01;6.60;99.90
16846;DHT22;8539;53.188;8.696;2024-02-04T00:51:29;6.50;99.90
16846;DHT22;8539;53.188;8.696;2024-02-04T00:53:56;6.50;99.90
16846;DHT22;8539;53.188;8.696;2024-02-04T00:56:24;6.50;99.90
16846;DHT22;8539;53.188;8.696;2024-02-04T00:58:51;6.50;99.90
16846;DHT22;8539;53.188;8.696;2024-02-04T01:01:18;6.50;99.90
16846;DHT22;8539;53.188;8.696;2024-02-04T01:03:49;6.50;99.90
16846;DHT22;8539;53.188;8.696;2024-02-04T01:06:16;6.50;99.90
16846;DHT22;8539;53.188;8.696;2024-02-04T01:08:44;6.50;99.90
16846;DHT22;8539;53.188;8.696;2024-02-04T01:11:11;6.50;99.90
16846;DHT22;8539;53.188;8.696;2024-02-04T01:13:38;6.50;99.90
16846;DHT22;8539;53.188;8.696;2024-02-04T01:16:06;6.40;99.90
16846;DHT22;8539;53.188;8.696;2024-02-04T01:18:34;6.40;99.90
16846;DHT22;8539;53.188;8.696;2024-02-04T01:21:02;6.40;99.90
16846;DHT22;8539;53.188;8.696;2024-02-04T01:23:29;6.40;99.90
16846;DHT22;8539;53.188;8.696;2024-02-04T01:25:57;6.30;99.90
16846;DHT22;8539;53.188;8.696;2024-02-04T01:28:24;6.30;99.90
16846;DHT22;8539;53.188;8.696;2024-02-04T01:30:51;6.30;99.90
16846;DHT22;8539;53.188;8.696;2024-02-04T01:33:19;6.30;99.90
16846;DHT22;8539;53.188;8.696;2024-02-04T01:35:47;6.30;99.90
16846;DHT22;8539;53.188;8.696;2024-02-04T01:38:14;6.30;99.90
16846;DHT22;8539;53.188;8.696;2024-02-04T01:40:42;6.40;99.90
16846;DHT22;8539;53.188;8.696;2024-02-04T01:43:10;6.40;99.90
16846;DHT22;8539;53.188;8.696;2024-02-04T01:45:37;6.40;99.90
16846;DHT22;8539;53.188;8.696;2024-02-04T01:48:05;6.40;99.90
16846;DHT22;8539;53.188;8.696;2024-02-04T01:50:33;6.40;99.90
16846;DHT22;8539;53.188;8.696;2024-02-04T01:53:00;6.40;99.90
16846;DHT22;8539;53.188;8.696;2024-02-04T01:55:28;6.40;99.90
16846;DHT22;8539;53.188;8.696;2024-02-04T01:57:57;6.50;99.90
16846;DHT22;8539;53.188;8.696;2024-02-04T02:00:25;6.40;99.90
16846;DHT22;8539;53.188;8.696;2024-02-04T02:02:52;6.50;99.90
16846;DHT22;8539;53.188;8.696;2024-02-04T02:05:20;6.50;99.90
16846;DHT22;8539;53.188;8.696;2024-02-04T02:07:48;6.50;99.90
16846;DHT22;8539;53.188;8.696;2024-02-04T02:10:19;6.40;99.90
16846;DHT22;8539;53.188;8.696;2024-02-04T02:13:04;6.40;99.90
16846;DHT22;8539;53.188;8.696;2024-02-04T02:15:44;6.40;99.90
16846;DHT22;8539;53.188;8.696;2024-02-04T02:18:27;6.30;99.90
16846;DHT22;8539;53.188;8.696;2024-02-04T02:21:30;6.20;99.90
16846;DHT22;8539;53.188;8.696;2024-02-04T02:24:34;6.30;99.90
16846;DHT22;8539;53.188;8.696;2024-02-04T02:27:02;6.20;99.90
16846;DHT22;8539;53.188;8.696;2024-02-04T02:29:29;6.20;99.90
16846;DHT22;8539;53.188;8.696;2024-02-04T02:31:57;6.20;99.90
16846;DHT22;8539;53.188;8.696;2024-02-04T02:34:25;6.20;99.90
16846;DHT22;8539;53.188;8.696;2024-02-04T02:40:06;6.10;99.90
16846;DHT22;8539;53.188;8.696;2024-02-04T02:42:35;6.10;99.90
16846;DHT22;8539;53.188;8.696;2024-02-04T02:45:05;6.00;99.90
16846;DHT22;8539;53.188;8.696;2024-02-04T02:47:33;6.10;99.90
16846;DHT22;8539;53.188;8.696;2024-02-04T02:50:01;6.10;99.90
16846;DHT22;8539;53.188;8.696;2024-02-04T02:52:28;6.10;99.90
16846;DHT22;8539;53.188;8.696;2024-02-04T02:54:56;6.10;99.90
16846;DHT22;8539;53.188;8.696;2024-02-04T02:57:23;6.00;99.90
16846;DHT22;8539;53.188;8.696;2024-02-04T02:59:50;6.00;99.90
16846;DHT22;8539;53.188;8.696;2024-02-04T03:02:18;6.00;99.90
16846;DHT22;8539;53.188;8.696;2024-02-04T03:04:45;6.00;99.90
16846;DHT22;8539;53.188;8.696;2024-02-04T03:07:12;6.00;99.90
16846;DHT22;8539;53.188;8.696;2024-02-04T03:09:40;6.00;99.90
16846;DHT22;8539;53.188;8.696;2024-02-04T03:12:07;5.90;99.90
16846;DHT22;8539;53.188;8.696;2024-02-04T03:14:34;5.90;99.90
16846;DHT22;8539;53.188;8.696;2024-02-04T03:17:02;5.90;99.90
16846;DHT22;8539;53.188;8.696;2024-02-04T03:19:29;5.90;99.90
16846;DHT22;8539;53.188;8.696;2024-02-04T03:22:03;5.80;99.90
16846;DHT22;8539;53.188;8.696;2024-02-04T03:24:30;5.80;99.90
16846;DHT22;8539;53.188;8.696;2024-02-04T03:26:57;5.80;99.90
16846;DHT22;8539;53.188;8.696;2024-02-04T03:29:24;5.80;99.90
16846;DHT22;8539;53.188;8.696;2024-02-04T03:31:51;5.70;99.90
16846;DHT22;8539;53.188;8.696;2024-02-04T03:34:18;5.70;99.90
16846;DHT22;8539;53.188;8.696;2024-02-04T03:36:46;5.70;99.90
16846;DHT22;8539;53.188;8.696;2024-02-04T03:39:13;5.70;99.90
16846;DHT22;8539;53.188;8.696;2024-02-04T03:41:41;5.70;99.90
16846;DHT22;8539;53.188;8.696;2024-02-04T03:44:08;5.70;99.90
16846;DHT22;8539;53.188;8.696;2024-02-04T03:46:36;5.70;99.90
16846;DHT22;8539;53.188;8.696;2024-02-04T03:49:07;5.70;99.90
16846;DHT22;8539;53.188;8.696;2024-02-04T03:51:35;5.60;99.90
16846;DHT22;8539;53.188;8.696;2024-02-04T03:54:02;5.60;99.90
16846;DHT22;8539;53.188;8.696;2024-02-04T03:56:29;5.60;99.90
16846;DHT22;8539;53.188;8.696;2024-02-04T03:58:57;5.60;99.90
16846;DHT22;8539;53.188;8.696;2024-02-04T04:01:24;5.60;99.90
16846;DHT22;8539;53.188;8.696;2024-02-04T04:03:52;5.60;99.90
16846;DHT22;8539;53.188;8.696;2024-02-04T04:06:19;5.60;99.90
16846;DHT22;8539;53.188;8.696;2024-02-04T04:08:47;5.60;99.90
16846;DHT22;8539;53.188;8.696;2024-02-04T04:11:14;5.60;99.90
16846;DHT22;8539;53.188;8.696;2024-02-04T04:13:41;5.50;99.90
16846;DHT22;8539;53.188;8.696;2024-02-04T04:16:08;5.60;99.90
16846;DHT22;8539;53.188;8.696;2024-02-04T04:18:35;5.50;99.90
16846;DHT22;8539;53.188;8.696;2024-02-04T04:21:03;5.50;99.90
16846;DHT22;8539;53.188;8.696;2024-02-04T04:23:30;5.60;99.90
16846;DHT22;8539;53.188;8.696;2024-02-04T04:25:57;5.50;99.90
16846;DHT22;8539;53.188;8.696;2024-02-04T04:28:25;5.50;99.90
16846;DHT22;8539;53.188;8.696;2024-02-04T04:30:52;5.60;99.90
16846;DHT22;8539;53.188;8.696;2024-02-04T04:33:19;5.60;99.90
16846;DHT22;8539;53.188;8.696;2024-02-04T04:35:47;5.60;99.90
16846;DHT22;8539;53.188;8.696;2024-02-04T04:38:14;5.60;99.90
16846;DHT22;8539;53.188;8.696;2024-02-04T04:40:42;5.60;99.90
16846;DHT22;8539;53.188;8.696;2024-02-04T04:43:09;5.60;99.90
16846;DHT22;8539;53.188;8.696;2024-02-04T04:45:36;5.60;99.90
16846;DHT22;8539;53.188;8.696;2024-02-04T04:48:04;5.50;99.90
16846;DHT22;8539;53.188;8.696;2024-02-04T04:50:32;5.50;99.90
16846;DHT22;8539;53.188;8.696;2024-02-04T04:52:59;5.50;99.90
16846;DHT22;8539;53.188;8.696;2024-02-04T04:55:26;5.50;99.90
16846;DHT22;8539;53.188;8.696;2024-02-04T04:57:54;5.50;99.90
16846;DHT22;8539;53.188;8.696;2024-02-04T05:00:21;5.50;99.90
16846;DHT22;8539;53.188;8.696;2024-02-04T05:02:49;5.50;99.90
16846;DHT22;8539;53.188;8.696;2024-02-04T05:05:16;5.50;99.90
16846;DHT22;8539;53.188;8.696;2024-02-04T05:07:44;5.50;99.90
16846;DHT22;8539;53.188;8.696;2024-02-04T05:10:13;5.50;99.90
16846;DHT22;8539;53.188;8.696;2024-02-04T05:12:41;5.50;99.90
16846;DHT22;8539;53.188;8.696;2024-02-04T05:15:08;5.50;99.90
16846;DHT22;8539;53.188;8.696;2024-02-04T05:17:36;5.50;99.90
16846;DHT22;8539;53.188;8.696;2024-02-04T05:20:03;5.40;99.90
16846;DHT22;8539;53.188;8.696;2024-02-04T05:22:31;5.40;99.90
16846;DHT22;8539;53.188;8.696;2024-02-04T05:24:58;5.40;99.90
16846;DHT22;8539;53.188;8.696;2024-02-04T05:27:26;5.40;99.90
16846;DHT22;8539;53.188;8.696;2024-02-04T05:29:53;5.40;99.90
16846;DHT22;8539;53.188;8.696;2024-02-04T05:32:21;5.40;99.90
16846;DHT22;8539;53.188;8.696;2024-02-04T05:34:48;5.40;99.90
16846;DHT22;8539;53.188;8.696;2024-02-04T05:37:16;5.40;99.90
16846;DHT22;8539;53.188;8.696;2024-02-04T05:39:43;5.40;99.90
16846;DHT22;8539;53.188;8.696;2024-02-04T05:42:10;5.40;99.90
16846;DHT22;8539;53.188;8.696;2024-02-04T05:44:38;5.40;99.90
16846;DHT22;8539;53.188;8.696;2024-02-04T05:47:05;5.40;99.90
16846;DHT22;8539;53.188;8.696;2024-02-04T05:49:32;5.40;99.90
16846;DHT22;8539;53.188;8.696;2024-02-04T05:52:00;5.50;99.90
16846;DHT22;8539;53.188;8.696;2024-02-04T05:54:27;5.40;99.90
16846;DHT22;8539;53.188;8.696;2024-02-04T05:56:54;5.40;99.90
16846;DHT22;8539;53.188;8.696;2024-02-04T05:59:22;5.40;99.90
16846;DHT22;8539;53.188;8.696;2024-02-04T06:01:49;5.40;99.90
16846;DHT22;8539;53.188;8.696;2024-02-04T06:04:16;5.40;99.90
16846;DHT22;8539;53.188;8.696;2024-02-04T06:06:43;5.40;99.90
16846;DHT22;8539;53.188;8.696;2024-02-04T06:09:11;5.40;99.90
16846;DHT22;8539;53.188;8.696;2024-02-04T06:11:38;5.40;99.90
16846;DHT22;8539;53.188;8.696;2024-02-04T06:14:06;5.50;99.90
16846;DHT22;8539;53.188;8.696;2024-02-04T06:16:33;5.50;99.90
16846;DHT22;8539;53.188;8.696;2024-02-04T06:19:01;5.40;99.90
16846;DHT22;8539;53.188;8.696;2024-02-04T06:21:29;5.40;99.90
16846;DHT22;8539;53.188;8.696;2024-02-04T06:23:56;5.40;99.90
16846;DHT22;8539;53.188;8.696;2024-02-04T06:26:24;5.40;99.90
16846;DHT22;8539;53.188;8.696;2024-02-04T06:28:51;5.40;99.90
16846;DHT22;8539;53.188;8.696;2024-02-04T06:31:19;5.40;99.90
16846;DHT22;8539;53.188;8.696;2024-02-04T06:33:46;5.40;99.90
16846;DHT22;8539;53.188;8.696;2024-02-04T06:36:14;5.40;99.90
16846;DHT22;8539;53.188;8.696;2024-02-04T06:38:41;5.50;99.90
16846;DHT22;8539;53.188;8.696;2024-02-04T06:41:09;5.50;99.90
16846;DHT22;8539;53.188;8.696;2024-02-04T06:43:39;5.50;99.90
16846;DHT22;8539;53.188;8.696;2024-02-04T06:46:06;5.50;99.90
16846;DHT22;8539;53.188;8.696;2024-02-04T06:48:34;5.50;99.90
16846;DHT22;8539;53.188;8.696;2024-02-04T06:51:01;5.50;99.90
16846;DHT22;8539;53.188;8.696;2024-02-04T06:53:29;5.60;99.90
16846;DHT22;8539;53.188;8.696;2024-02-04T06:55:56;5.60;99.90
16846;DHT22;8539;53.188;8.696;2024-02-04T06:58:24;5.60;99.90
16846;DHT22;8539;53.188;8.696;2024-02-04T07:00:51;5.60;99.90
16846;DHT22;8539;53.188;8.696;2024-02-04T07:03:19;5.70;99.90
16846;DHT22;8539;53.188;8.696;2024-02-04T07:05:46;5.70;99.90
16846;DHT22;8539;53.188;8.696;2024-02-04T07:08:14;5.70;99.90
16846;DHT22;8539;53.188;8.696;2024-02-04T07:10:42;5.70;99.90
16846;DHT22;8539;53.188;8.696;2024-02-04T07:13:09;5.80;99.90
16846;DHT22;8539;53.188;8.696;2024-02-04T07:15:39;5.80;99.90
16846;DHT22;8539;53.188;8.696;2024-02-04T07:18:06;5.80;99.90
16846;DHT22;8539;53.188;8.696;2024-02-04T07:20:34;5.80;99.90
16846;DHT22;8539;53.188;8.696;2024-02-04T07:23:02;5.90;99.90
16846;DHT22;8539;53.188;8.696;2024-02-04T07:25:29;5.90;99.90
16846;DHT22;8539;53.188;8.696;2024-02-04T07:27:57;6.00;99.90
16846;DHT22;8539;53.188;8.696;2024-02-04T07:30:25;5.90;99.90
16846;DHT22;8539;53.188;8.696;2024-02-04T07:32:53;5.90;99.90
16846;DHT22;8539;53.188;8.696;2024-02-04T07:35:20;6.00;99.90
16846;DHT22;8539;53.188;8.696;2024-02-04T07:37:48;5.90;99.90
16846;DHT22;8539;53.188;8.696;2024-02-04T07:40:15;6.00;99.90
16846;DHT22;8539;53.188;8.696;2024-02-04T07:42:43;6.00;99.90
16846;DHT22;8539;53.188;8.696;2024-02-04T07:45:10;6.00;99.90
16846;DHT22;8539;53.188;8.696;2024-02-04T07:47:37;6.10;99.90
16846;DHT22;8539;53.188;8.696;2024-02-04T07:50:05;6.10;99.90
16846;DHT22;8539;53.188;8.696;2024-02-04T07:52:32;6.10;99.90
16846;DHT22;8539;53.188;8.696;2024-02-04T07:54:59;6.10;99.90
16846;DHT22;8539;53.188;8.696;2024-02-04T07:57:27;6.10;99.90
16846;DHT22;8539;53.188;8.696;2024-02-04T07:59:54;6.20;99.90
16846;DHT22;8539;53.188;8.696;2024-02-04T08:02:22;6.20;99.90
16846;DHT22;8539;53.188;8.696;2024-02-04T08:04:49;6.20;99.90
16846;DHT22;8539;53.188;8.696;2024-02-04T08:07:16;6.30;99.90
16846;DHT22;8539;53.188;8.696;2024-02-04T08:09:45;6.30;99.90
16846;DHT22;8539;53.188;8.696;2024-02-04T08:12:12;6.30;99.90
16846;DHT22;8539;53.188;8.696;2024-02-04T08:14:39;6.30;99.90
16846;DHT22;8539;53.188;8.696;2024-02-04T08:17:07;6.30;99.90
16846;DHT22;8539;53.188;8.696;2024-02-04T08:19:34;6.30;99.90
16846;DHT22;8539;53.188;8.696;2024-02-04T08:22:02;6.40;99.90
16846;DHT22;8539;53.188;8.696;2024-02-04T08:24:29;6.40;99.90
16846;DHT22;8539;53.188;8.696;2024-02-04T08:26:59;6.40;99.90
16846;DHT22;8539;53.188;8.696;2024-02-04T08:29:26;6.40;99.90
16846;DHT22;8539;53.188;8.696;2024-02-04T08:31:53;6.40;99.90
16846;DHT22;8539;53.188;8.696;2024-02-04T08:34:20;6.50;99.90
16846;DHT22;8539;53.188;8.696;2024-02-04T08:36:51;6.50;99.90
16846;DHT22;8539;53.188;8.696;2024-02-04T08:39:18;6.50;99.90
16846;DHT22;8539;53.188;8.696;2024-02-04T08:41:45;6.50;99.90
16846;DHT22;8539;53.188;8.696;2024-02-04T08:44:12;6.50;99.90
16846;DHT22;8539;53.188;8.696;2024-02-04T08:46:57;6.50;99.90
16846;DHT22;8539;53.188;8.696;2024-02-04T08:49:25;6.50;99.90
16846;DHT22;8539;53.188;8.696;2024-02-04T08:51:52;6.60;99.90
16846;DHT22;8539;53.188;8.696;2024-02-04T08:54:20;6.60;99.90
16846;DHT22;8539;53.188;8.696;2024-02-04T08:56:47;6.60;99.90
16846;DHT22;8539;53.188;8.696;2024-02-04T08:59:14;6.60;99.90
16846;DHT22;8539;53.188;8.696;2024-02-04T09:01:41;6.60;99.90
16846;DHT22;8539;53.188;8.696;2024-02-04T09:04:08;6.70;99.90
16846;DHT22;8539;53.188;8.696;2024-02-04T09:06:35;6.70;99.90
16846;DHT22;8539;53.188;8.696;2024-02-04T09:09:02;6.70;99.90
16846;DHT22;8539;53.188;8.696;2024-02-04T09:11:29;6.70;99.90
16846;DHT22;8539;53.188;8.696;2024-02-04T09:13:56;6.80;99.90
16846;DHT22;8539;53.188;8.696;2024-02-04T09:16:23;6.80;99.90
16846;DHT22;8539;53.188;8.696;2024-02-04T09:18:51;6.80;99.90
16846;DHT22;8539;53.188;8.696;2024-02-04T09:21:18;6.80;99.90
16846;DHT22;8539;53.188;8.696;2024-02-04T09:23:46;6.80;99.90
16846;DHT22;8539;53.188;8.696;2024-02-04T09:26:13;6.90;99.90
16846;DHT22;8539;53.188;8.696;2024-02-04T09:28:45;6.90;99.90
16846;DHT22;8539;53.188;8.696;2024-02-04T09:31:12;6.90;99.90
16846;DHT22;8539;53.188;8.696;2024-02-04T09:33:40;7.00;99.90
16846;DHT22;8539;53.188;8.696;2024-02-04T09:36:08;7.00;99.90
16846;DHT22;8539;53.188;8.696;2024-02-04T09:38:35;7.00;99.90
16846;DHT22;8539;53.188;8.696;2024-02-04T09:41:02;7.00;99.90
16846;DHT22;8539;53.188;8.696;2024-02-04T09:43:32;7.00;99.90
16846;DHT22;8539;53.188;8.696;2024-02-04T09:46:00;7.10;99.90
16846;DHT22;8539;53.188;8.696;2024-02-04T09:48:32;7.10;99.90
16846;DHT22;8539;53.188;8.696;2024-02-04T09:51:00;7.10;99.90
16846;DHT22;8539;53.188;8.696;2024-02-04T09:53:35;7.20;99.90
16846;DHT22;8539;53.188;8.696;2024-02-04T09:56:04;7.20;99.90
16846;DHT22;8539;53.188;8.696;2024-02-04T09:58:33;7.20;99.90
16846;DHT22;8539;53.188;8.696;2024-02-04T10:01:02;7.20;99.90
16846;DHT22;8539;53.188;8.696;2024-02-04T10:03:30;7.30;99.90
16846;DHT22;8539;53.188;8.696;2024-02-04T10:05:57;7.30;99.90
16846;DHT22;8539;53.188;8.696;2024-02-04T10:08:24;7.40;99.90
16846;DHT22;8539;53.188;8.696;2024-02-04T10:10:52;7.40;99.90
16846;DHT22;8539;53.188;8.696;2024-02-04T10:13:25;7.50;99.90
16846;DHT22;8539;53.188;8.696;2024-02-04T10:15:52;7.50;99.90
16846;DHT22;8539;53.188;8.696;2024-02-04T10:18:20;7.60;99.90
16846;DHT22;8539;53.188;8.696;2024-02-04T10:20:48;7.60;99.90
16846;DHT22;8539;53.188;8.696;2024-02-04T10:23:15;7.60;99.90
16846;DHT22;8539;53.188;8.696;2024-02-04T10:25:42;7.70;99.90
16846;DHT22;8539;53.188;8.696;2024-02-04T10:28:10;7.70;99.90
16846;DHT22;8539;53.188;8.696;2024-02-04T10:30:38;7.80;99.90
16846;DHT22;8539;53.188;8.696;2024-02-04T10:33:07;7.70;99.90
16846;DHT22;8539;53.188;8.696;2024-02-04T10:35:34;7.80;99.90
16846;DHT22;8539;53.188;8.696;2024-02-04T10:38:01;7.80;99.90
16846;DHT22;8539;53.188;8.696;2024-02-04T10:40:28;7.90;99.90
16846;DHT22;8539;53.188;8.696;2024-02-04T10:43:03;7.90;99.90
16846;DHT22;8539;53.188;8.696;2024-02-04T10:45:32;7.90;99.90
16846;DHT22;8539;53.188;8.696;2024-02-04T10:48:01;8.00;99.90
16846;DHT22;8539;53.188;8.696;2024-02-04T10:50:30;8.10;99.90
16846;DHT22;8539;53.188;8.696;2024-02-04T10:53:04;8.10;99.90
16846;DHT22;8539;53.188;8.696;2024-02-04T10:55:40;8.20;99.90
16846;DHT22;8539;53.188;8.696;2024-02-04T10:58:10;8.30;99.90
16846;DHT22;8539;53.188;8.696;2024-02-04T11:00:40;8.30;99.90
16846;DHT22;8539;53.188;8.696;2024-02-04T11:03:08;8.50;99.90
16846;DHT22;8539;53.188;8.696;2024-02-04T11:05:36;8.60;99.90
16846;DHT22;8539;53.188;8.696;2024-02-04T11:08:06;8.50;99.90
16846;DHT22;8539;53.188;8.696;2024-02-04T11:10:34;8.50;99.90
16846;DHT22;8539;53.188;8.696;2024-02-04T11:13:02;8.50;99.90
16846;DHT22;8539;53.188;8.696;2024-02-04T11:15:36;8.60;99.90
16846;DHT22;8539;53.188;8.696;2024-02-04T11:18:33;8.50;99.90
16846;DHT22;8539;53.188;8.696;2024-02-04T11:26:44;8.60;99.90
16846;DHT22;8539;53.188;8.696;2024-02-04T11:29:12;8.60;99.90
16846;DHT22;8539;53.188;8.696;2024-02-04T11:31:40;8.60;99.90
16846;DHT22;8539;53.188;8.696;2024-02-04T11:34:08;8.60;99.90
16846;DHT22;8539;53.188;8.696;2024-02-04T11:36:39;8.60;99.90
16846;DHT22;8539;53.188;8.696;2024-02-04T11:39:14;8.60;99.90
16846;DHT22;8539;53.188;8.696;2024-02-04T11:41:46;8.60;99.90
16846;DHT22;8539;53.188;8.696;2024-02-04T11:44:23;8.70;99.90
16846;DHT22;8539;53.188;8.696;2024-02-04T11:46:51;8.70;99.90
16846;DHT22;8539;53.188;8.696;2024-02-04T11:49:19;8.70;99.90
16846;DHT22;8539;53.188;8.696;2024-02-04T11:51:52;8.80;99.90
16846;DHT22;8539;53.188;8.696;2024-02-04T11:54:22;8.80;99.90
16846;DHT22;8539;53.188;8.696;2024-02-04T11:56:50;8.90;99.90
16846;DHT22;8539;53.188;8.696;2024-02-04T11:59:21;9.00;99.90
16846;DHT22;8539;53.188;8.696;2024-02-04T12:01:56;9.00;99.90
16846;DHT22;8539;53.188;8.696;2024-02-04T12:04:27;9.00;99.90
16846;DHT22;8539;53.188;8.696;2024-02-04T12:06:56;9.00;99.90
16846;DHT22;8539;53.188;8.696;2024-02-04T12:09:23;9.00;99.90
16846;DHT22;8539;53.188;8.696;2024-02-04T12:11:53;9.00;99.90
16846;DHT22;8539;53.188;8.696;2024-02-04T12:14:21;8.90;99.90
16846;DHT22;8539;53.188;8.696;2024-02-04T12:16:48;8.90;99.90
16846;DHT22;8539;53.188;8.696;2024-02-04T12:19:16;8.90;99.90
16846;DHT22;8539;53.188;8.696;2024-02-04T12:21:44;8.90;99.90
16846;DHT22;8539;53.188;8.696;2024-02-04T12:24:11;8.90;99.90
16846;DHT22;8539;53.188;8.696;2024-02-04T12:26:39;8.90;99.90
16846;DHT22;8539;53.188;8.696;2024-02-04T12:29:07;8.80;99.90
16846;DHT22;8539;53.188;8.696;2024-02-04T12:31:34;8.80;99.90
16846;DHT22;8539;53.188;8.696;2024-02-04T12:34:02;8.70;99.90
16846;DHT22;8539;53.188;8.696;2024-02-04T12:36:31;8.70;99.90
16846;DHT22;8539;53.188;8.696;2024-02-04T12:38:59;8.80;99.90
16846;DHT22;8539;53.188;8.696;2024-02-04T12:41:28;8.70;99.90
16846;DHT22;8539;53.188;8.696;2024-02-04T12:43:59;8.70;99.90
16846;DHT22;8539;53.188;8.696;2024-02-04T12:46:32;8.70;99.90
16846;DHT22;8539;53.188;8.696;2024-02-04T12:48:59;8.70;99.90
16846;DHT22;8539;53.188;8.696;2024-02-04T12:51:32;8.60;99.90
16846;DHT22;8539;53.188;8.696;2024-02-04T12:56:47;8.60;99.90
16846;DHT22;8539;53.188;8.696;2024-02-04T12:59:31;8.60;99.90
16846;DHT22;8539;53.188;8.696;2024-02-04T13:01:59;8.50;99.90
16846;DHT22;8539;53.188;8.696;2024-02-04T13:04:34;8.50;99.90
16846;DHT22;8539;53.188;8.696;2024-02-04T13:07:01;8.50;99.90
16846;DHT22;8539;53.188;8.696;2024-02-04T13:09:28;8.50;99.90
16846;DHT22;8539;53.188;8.696;2024-02-04T13:12:05;8.50;99.90
16846;DHT22;8539;53.188;8.696;2024-02-04T13:14:38;8.40;99.90
16846;DHT22;8539;53.188;8.696;2024-02-04T13:17:05;8.40;99.90
16846;DHT22;8539;53.188;8.696;2024-02-04T13:19:33;8.40;99.90
16846;DHT22;8539;53.188;8.696;2024-02-04T13:22:02;8.40;99.90
16846;DHT22;8539;53.188;8.696;2024-02-04T13:24:31;8.50;99.90
16846;DHT22;8539;53.188;8.696;2024-02-04T13:26:58;8.40;99.90
16846;DHT22;8539;53.188;8.696;2024-02-04T13:29:30;8.40;99.90
16846;DHT22;8539;53.188;8.696;2024-02-04T13:31:57;8.40;99.90
16846;DHT22;8539;53.188;8.696;2024-02-04T13:34:25;8.40;99.90
16846;DHT22;8539;53.188;8.696;2024-02-04T13:47:59;8.40;99.90
16846;DHT22;8539;53.188;8.696;2024-02-04T13:50:27;8.50;99.90
16846;DHT22;8539;53.188;8.696;2024-02-04T13:52:54;8.50;99.90
16846;DHT22;8539;53.188;8.696;2024-02-04T13:55:21;8.50;99.90
16846;DHT22;8539;53.188;8.696;2024-02-04T13:57:49;8.50;99.90
16846;DHT22;8539;53.188;8.696;2024-02-04T14:00:16;8.50;99.90
16846;DHT22;8539;53.188;8.696;2024-02-04T14:02:44;8.40;99.90
16846;DHT22;8539;53.188;8.696;2024-02-04T14:05:11;8.40;99.90
16846;DHT22;8539;53.188;8.696;2024-02-04T14:07:38;8.40;99.90
16846;DHT22;8539;53.188;8.696;2024-02-04T14:10:06;8.30;99.90
16846;DHT22;8539;53.188;8.696;2024-02-04T14:12:35;8.30;99.90
16846;DHT22;8539;53.188;8.696;2024-02-04T14:15:03;8.30;99.90
16846;DHT22;8539;53.188;8.696;2024-02-04T14:17:30;8.30;99.90
16846;DHT22;8539;53.188;8.696;2024-02-04T14:19:57;8.30;99.90
16846;DHT22;8539;53.188;8.696;2024-02-04T14:22:26;8.30;99.90
16846;DHT22;8539;53.188;8.696;2024-02-04T14:24:55;8.30;99.90
16846;DHT22;8539;53.188;8.696;2024-02-04T14:39:54;8.20;99.90
16846;DHT22;8539;53.188;8.696;2024-02-04T14:42:24;8.30;99.90
16846;DHT22;8539;53.188;8.696;2024-02-04T14:44:51;8.40;99.90
16846;DHT22;8539;53.188;8.696;2024-02-04T14:47:18;8.30;99.90
16846;DHT22;8539;53.188;8.696;2024-02-04T14:49:46;8.30;99.90
16846;DHT22;8539;53.188;8.696;2024-02-04T14:52:13;8.30;99.90
16846;DHT22;8539;53.188;8.696;2024-02-04T14:54:41;8.20;99.90
16846;DHT22;8539;53.188;8.696;2024-02-04T14:57:08;8.20;99.90
16846;DHT22;8539;53.188;8.696;2024-02-04T14:59:35;8.20;99.90
16846;DHT22;8539;53.188;8.696;2024-02-04T15:02:04;8.10;99.90
16846;DHT22;8539;53.188;8.696;2024-02-04T15:04:32;8.10;99.90
16846;DHT22;8539;53.188;8.696;2024-02-04T15:06:59;8.10;99.90
16846;DHT22;8539;53.188;8.696;2024-02-04T15:09:34;8.10;99.90
16846;DHT22;8539;53.188;8.696;2024-02-04T15:12:01;8.10;99.90
16846;DHT22;8539;53.188;8.696;2024-02-04T15:14:29;8.10;99.90
16846;DHT22;8539;53.188;8.696;2024-02-04T15:16:57;8.10;99.90
16846;DHT22;8539;53.188;8.696;2024-02-04T15:19:25;8.10;99.90
16846;DHT22;8539;53.188;8.696;2024-02-04T15:21:55;8.00;99.90
16846;DHT22;8539;53.188;8.696;2024-02-04T15:24:22;8.00;99.90
16846;DHT22;8539;53.188;8.696;2024-02-04T15:26:52;8.00;99.90
16846;DHT22;8539;53.188;8.696;2024-02-04T15:29:19;7.90;99.90
16846;DHT22;8539;53.188;8.696;2024-02-04T15:31:47;7.90;99.90
16846;DHT22;8539;53.188;8.696;2024-02-04T15:34:16;7.90;99.90
16846;DHT22;8539;53.188;8.696;2024-02-04T15:36:44;7.80;99.90
16846;DHT22;8539;53.188;8.696;2024-02-04T15:39:11;7.80;99.90
16846;DHT22;8539;53.188;8.696;2024-02-04T15:41:38;7.80;99.90
16846;DHT22;8539;53.188;8.696;2024-02-04T15:44:06;7.80;99.90
16846;DHT22;8539;53.188;8.696;2024-02-04T15:46:35;7.70;99.90
16846;DHT22;8539;53.188;8.696;2024-02-04T15:49:03;7.70;99.90
16846;DHT22;8539;53.188;8.696;2024-02-04T15:51:37;7.70;99.90
16846;DHT22;8539;53.188;8.696;2024-02-04T15:54:04;7.60;99.90
16846;DHT22;8539;53.188;8.696;2024-02-04T15:56:38;7.60;99.90
16846;DHT22;8539;53.188;8.696;2024-02-04T15:59:09;7.60;99.90
16846;DHT22;8539;53.188;8.696;2024-02-04T16:01:38;7.60;99.90
16846;DHT22;8539;53.188;8.696;2024-02-04T16:04:08;7.60;99.90
16846;DHT22;8539;53.188;8.696;2024-02-04T16:06:36;7.60;99.90
16846;DHT22;8539;53.188;8.696;2024-02-04T16:09:03;7.50;99.90
16846;DHT22;8539;53.188;8.696;2024-02-04T16:11:58;7.50;99.90
16846;DHT22;8539;53.188;8.696;2024-02-04T16:14:38;7.50;99.90
16846;DHT22;8539;53.188;8.696;2024-02-04T16:17:19;7.50;99.90
16846;DHT22;8539;53.188;8.696;2024-02-04T16:19:50;7.50;99.90
16846;DHT22;8539;53.188;8.696;2024-02-04T16:22:20;7.50;99.90
16846;DHT22;8539;53.188;8.696;2024-02-04T16:24:48;7.50;99.90
16846;DHT22;8539;53.188;8.696;2024-02-04T16:27:15;7.50;99.90
16846;DHT22;8539;53.188;8.696;2024-02-04T16:29:42;7.40;99.90
16846;DHT22;8539;53.188;8.696;2024-02-04T16:32:09;7.50;99.90
16846;DHT22;8539;53.188;8.696;2024-02-04T16:34:40;7.50;99.90
16846;DHT22;8539;53.188;8.696;2024-02-04T16:37:07;7.40;99.90
16846;DHT22;8539;53.188;8.696;2024-02-04T16:39:37;7.40;99.90
16846;DHT22;8539;53.188;8.696;2024-02-04T16:42:04;7.40;99.90
16846;DHT22;8539;53.188;8.696;2024-02-04T16:44:31;7.40;99.90
16846;DHT22;8539;53.188;8.696;2024-02-04T16:46:58;7.30;99.90